createdAt,value
2023-04-08T00:01:02.091Z,7.83
2023-04-08T00:03:29.624Z,7.83
2023-04-08T00:05:56.872Z,7.83
2023-04-08T00:08:24.100Z,7.83
2023-04-08T00:10:51.229Z,7.81
2023-04-08T00:13:18.279Z,7.79
2023-04-08T00:15:46.156Z,7.76
2023-04-08T00:18:15.963Z,7.73
2023-04-08T00:20:43.875Z,7.70
2023-04-08T00:23:11.152Z,7.68
2023-04-08T00:25:38.301Z,7.64
2023-04-08T00:28:05.351Z,7.62
2023-04-08T00:30:32.514Z,7.61
2023-04-08T00:32:59.759Z,7.58
2023-04-08T00:35:27.114Z,7.55
2023-04-08T00:37:54.209Z,7.54
2023-04-08T00:40:21.391Z,7.52
2023-04-08T00:42:48.545Z,7.50
2023-04-08T00:45:16.145Z,7.46
2023-04-08T00:47:44.032Z,7.42
2023-04-08T00:50:11.883Z,7.37
2023-04-08T00:52:39.237Z,7.34
2023-04-08T00:55:06.853Z,7.31
2023-04-08T00:57:34.085Z,7.28
2023-04-08T01:00:01.478Z,7.25
2023-04-08T01:02:39.561Z,7.23
2023-04-08T01:05:13.536Z,7.21
2023-04-08T01:07:50.851Z,7.19
2023-04-08T01:10:22.375Z,7.17
2023-04-08T01:12:56.687Z,7.14
2023-04-08T01:15:27.877Z,7.10
2023-04-08T01:17:56.913Z,7.06
2023-04-08T01:20:26.172Z,7.03
2023-04-08T01:23:18.261Z,7.00
2023-04-08T01:25:52.042Z,6.96
2023-04-08T01:28:21.280Z,6.92
2023-04-08T01:30:50.141Z,6.90
2023-04-08T01:33:19.900Z,6.87
2023-04-08T01:35:47.060Z,6.88
2023-04-08T01:38:19.925Z,6.88
2023-04-08T01:40:49.811Z,6.87
2023-04-08T01:43:19.157Z,6.85
2023-04-08T01:45:48.217Z,6.83
2023-04-08T01:48:16.248Z,6.80
2023-04-08T01:50:45.115Z,6.76
2023-04-08T01:53:14.099Z,6.71
2023-04-08T01:55:43.268Z,6.69
2023-04-08T01:58:20.214Z,6.67
2023-04-08T02:00:48.485Z,6.66
2023-04-08T02:03:19.227Z,6.65
2023-04-08T02:05:46.864Z,6.64
2023-04-08T02:08:14.001Z,6.62
2023-04-08T02:10:41.259Z,6.61
2023-04-08T02:13:08.792Z,6.59
2023-04-08T02:15:42.193Z,6.57
2023-04-08T02:18:13.797Z,6.54
2023-04-08T02:20:46.711Z,6.51
2023-04-08T02:23:20.829Z,6.48
2023-04-08T02:25:48.871Z,6.46
2023-04-08T02:28:18.946Z,6.44
2023-04-08T02:30:50.970Z,6.43
2023-04-08T02:33:23.363Z,6.43
2023-04-08T02:35:56.148Z,6.42
2023-04-08T02:38:24.387Z,6.42
2023-04-08T02:40:51.846Z,6.40
2023-04-08T02:43:18.998Z,6.37
2023-04-08T02:45:46.556Z,6.35
2023-04-08T02:48:15.472Z,6.32
2023-04-08T02:50:42.564Z,6.29
2023-04-08T02:53:10.045Z,6.24
2023-04-08T02:55:37.252Z,6.23
2023-04-08T02:58:04.436Z,6.21
2023-04-08T03:00:31.885Z,6.20
2023-04-08T03:02:59.104Z,6.18
2023-04-08T03:05:27.032Z,6.17
2023-04-08T03:07:54.111Z,6.17
2023-04-08T03:10:21.306Z,6.15
2023-04-08T03:12:48.429Z,6.13
2023-04-08T03:15:15.887Z,6.09
2023-04-08T03:17:43.098Z,6.06
2023-04-08T03:20:10.895Z,6.04
2023-04-08T03:22:38.047Z,6.02
2023-04-08T03:25:05.514Z,6.02
2023-04-08T03:27:32.772Z,6.02
2023-04-08T03:29:59.969Z,6.01
2023-04-08T03:32:27.306Z,6.00
2023-04-08T03:34:54.573Z,6.00
2023-04-08T03:37:21.608Z,6.00
2023-04-08T03:39:48.790Z,5.97
2023-04-08T03:42:15.950Z,5.94
2023-04-08T03:44:43.175Z,5.92
2023-04-08T03:47:10.381Z,5.89
2023-04-08T03:49:37.634Z,5.85
2023-04-08T03:52:04.760Z,5.83
2023-04-08T03:54:31.868Z,5.83
2023-04-08T03:56:58.983Z,5.83
2023-04-08T03:59:26.120Z,5.83
2023-04-08T04:01:53.819Z,5.82
2023-04-08T04:04:21.353Z,5.82
2023-04-08T04:06:48.833Z,5.81
2023-04-08T04:09:16.983Z,5.79
2023-04-08T04:11:44.169Z,5.77
2023-04-08T04:14:11.592Z,5.74
2023-04-08T04:16:38.771Z,5.71
2023-04-08T04:19:06.204Z,5.67
2023-04-08T04:21:33.196Z,5.65
2023-04-08T04:24:00.282Z,5.64
2023-04-08T04:26:27.370Z,5.65
2023-04-08T04:28:54.398Z,5.66
2023-04-08T04:31:23.302Z,5.65
2023-04-08T04:33:50.641Z,5.64
2023-04-08T04:36:17.945Z,5.64
2023-04-08T04:38:45.084Z,5.63
2023-04-08T04:41:12.740Z,5.63
2023-04-08T04:43:39.894Z,5.63
2023-04-08T04:46:09.181Z,5.61
2023-04-08T04:48:36.671Z,5.58
2023-04-08T04:51:04.091Z,5.57
2023-04-08T04:53:31.914Z,5.58
2023-04-08T04:56:01.355Z,5.60
2023-04-08T04:58:28.908Z,5.62
2023-04-08T05:00:56.532Z,5.64
2023-04-08T05:03:23.958Z,5.65
2023-04-08T05:05:52.864Z,5.67
2023-04-08T05:08:20.763Z,5.67
2023-04-08T05:10:50.299Z,5.66
2023-04-08T05:13:24.958Z,5.66
2023-04-08T05:15:58.944Z,5.67
2023-04-08T05:18:26.147Z,5.67
2023-04-08T05:20:53.266Z,5.70
2023-04-08T05:23:20.416Z,5.73
2023-04-08T05:25:47.412Z,5.76
2023-04-08T05:28:14.406Z,5.80
2023-04-08T05:30:42.089Z,5.84
2023-04-08T05:33:09.186Z,5.87
2023-04-08T05:35:36.334Z,5.92
2023-04-08T05:38:03.573Z,5.95
2023-04-08T05:40:30.673Z,5.99
2023-04-08T05:42:57.698Z,6.02
2023-04-08T05:45:24.824Z,6.06
2023-04-08T05:47:51.918Z,6.11
2023-04-08T05:50:19.020Z,6.15
2023-04-08T05:52:46.178Z,6.22
2023-04-08T05:55:14.490Z,6.33
2023-04-08T05:57:42.141Z,6.44
2023-04-08T06:00:10.752Z,6.54
2023-04-08T06:02:38.967Z,6.67
2023-04-08T06:05:06.817Z,6.77
2023-04-08T06:07:34.665Z,6.86
2023-04-08T06:10:02.238Z,6.95
2023-04-08T06:12:29.640Z,7.03
2023-04-08T06:14:57.915Z,7.11
2023-04-08T06:17:25.043Z,7.17
2023-04-08T06:19:52.241Z,7.24
2023-04-08T06:22:19.402Z,7.30
2023-04-08T06:24:48.361Z,7.33
2023-04-08T06:27:16.120Z,7.40
2023-04-08T06:29:43.443Z,7.49
2023-04-08T06:32:11.731Z,7.59
2023-04-08T06:34:39.012Z,7.68
2023-04-08T06:37:06.573Z,7.76
2023-04-08T06:39:34.310Z,7.84
2023-04-08T06:42:01.877Z,7.88
2023-04-08T06:44:45.073Z,7.93
2023-04-08T06:47:12.167Z,8.00
2023-04-08T06:49:39.272Z,8.07
2023-04-08T06:52:07.115Z,8.11
2023-04-08T06:54:34.366Z,8.13
2023-04-08T06:57:01.460Z,8.14
2023-04-08T06:59:28.613Z,8.19
2023-04-08T07:01:56.039Z,8.24
2023-04-08T07:04:23.449Z,8.31
2023-04-08T07:06:50.499Z,8.42
2023-04-08T07:09:17.555Z,8.55
2023-04-08T07:11:44.910Z,8.61
2023-04-08T07:14:12.466Z,8.65
2023-04-08T07:16:39.461Z,8.66
2023-04-08T07:19:06.868Z,8.67
2023-04-08T07:21:33.915Z,8.68
2023-04-08T07:24:01.107Z,8.64
2023-04-08T07:26:28.758Z,8.65
2023-04-08T07:28:56.058Z,8.67
2023-04-08T07:31:23.281Z,8.71
2023-04-08T07:33:50.421Z,8.79
2023-04-08T07:36:18.546Z,8.95
2023-04-08T07:38:46.186Z,9.05
2023-04-08T07:41:13.338Z,9.10
2023-04-08T07:43:40.896Z,9.16
2023-04-08T07:46:08.060Z,9.34
2023-04-08T07:48:35.715Z,9.52
2023-04-08T07:51:11.103Z,9.69
2023-04-08T07:53:40.698Z,9.85
2023-04-08T07:56:15.788Z,9.92
2023-04-08T07:58:43.333Z,9.99
2023-04-08T08:01:22.048Z,10.11
2023-04-08T08:03:53.198Z,10.24
2023-04-08T08:06:21.870Z,10.36
2023-04-08T08:08:48.998Z,10.46
2023-04-08T08:11:16.197Z,10.56
2023-04-08T08:13:43.342Z,10.63
2023-04-08T08:16:12.113Z,10.70
2023-04-08T08:18:40.617Z,10.83
2023-04-08T08:21:08.838Z,10.96
2023-04-08T08:23:36.214Z,11.09
2023-04-08T08:26:10.757Z,11.21
2023-04-08T08:28:38.746Z,11.33
2023-04-08T08:31:06.439Z,11.46
2023-04-08T08:33:34.100Z,11.60
2023-04-08T08:36:01.765Z,11.67
2023-04-08T08:38:28.889Z,11.75
2023-04-08T08:41:01.639Z,11.86
2023-04-08T08:43:29.490Z,11.95
2023-04-08T08:45:56.642Z,11.98
2023-04-08T08:48:23.705Z,12.05
2023-04-08T08:50:51.267Z,12.15
2023-04-08T08:53:19.788Z,12.27
2023-04-08T08:56:13.575Z,12.38
2023-04-08T08:58:34.890Z,12.51
2023-04-08T09:01:01.943Z,12.62
2023-04-08T09:03:29.610Z,12.71
2023-04-08T09:06:02.351Z,12.80
2023-04-08T09:08:36.062Z,12.86
2023-04-08T09:11:16.364Z,12.89
2023-04-08T09:13:45.059Z,12.88
2023-04-08T09:16:15.196Z,12.92
2023-04-08T09:18:44.701Z,12.96
2023-04-08T09:21:13.292Z,13.05
2023-04-08T09:23:42.865Z,13.14
2023-04-08T09:26:18.451Z,13.20
2023-04-08T09:28:57.922Z,13.31
2023-04-08T09:31:27.943Z,13.43
2023-04-08T09:34:00.369Z,13.50
2023-04-08T09:36:27.665Z,13.59
2023-04-08T09:38:56.125Z,13.69
2023-04-08T09:41:26.571Z,13.79
2023-04-08T09:43:55.867Z,13.87
2023-04-08T09:46:32.443Z,13.93
2023-04-08T09:49:23.020Z,13.97
2023-04-08T09:51:58.237Z,14.03
2023-04-08T09:54:44.516Z,14.11
2023-04-08T09:57:18.070Z,14.19
2023-04-08T09:59:52.677Z,14.26
2023-04-08T10:02:30.568Z,14.33
2023-04-08T10:05:00.335Z,14.38
2023-04-08T10:07:27.617Z,14.40
2023-04-08T10:09:54.726Z,14.47
2023-04-08T10:12:22.186Z,14.51
2023-04-08T10:15:27.822Z,14.56
2023-04-08T10:18:05.724Z,14.60
2023-04-08T10:20:36.161Z,14.62
2023-04-08T10:23:09.082Z,14.66
2023-04-08T10:25:47.685Z,14.72
2023-04-08T10:28:15.364Z,14.82
2023-04-08T10:30:46.638Z,14.92
2023-04-08T10:33:16.740Z,15.04
2023-04-08T10:35:48.607Z,15.12
2023-04-08T10:38:17.742Z,15.14
2023-04-08T10:40:46.042Z,15.18
2023-04-08T10:43:14.729Z,15.25
2023-04-08T10:45:43.153Z,15.35
2023-04-08T10:48:22.578Z,15.42
2023-04-08T10:50:58.164Z,15.48
2023-04-08T10:53:28.801Z,15.48
2023-04-08T10:56:04.069Z,15.49
2023-04-08T10:58:31.302Z,15.49
2023-04-08T11:01:05.418Z,15.47
2023-04-08T11:03:37.185Z,15.43
2023-04-08T11:06:05.998Z,15.40
2023-04-08T11:08:34.056Z,15.37
2023-04-08T11:11:01.868Z,15.28
2023-04-08T11:13:29.226Z,15.17
2023-04-08T11:15:58.504Z,15.06
2023-04-08T11:18:26.256Z,14.93
2023-04-08T11:20:54.210Z,14.80
2023-04-08T11:23:23.032Z,14.67
2023-04-08T11:25:51.021Z,14.57
2023-04-08T11:28:18.515Z,14.50
2023-04-08T11:30:46.002Z,14.43
2023-04-08T11:33:13.870Z,14.36
2023-04-08T11:35:42.225Z,14.31
2023-04-08T11:38:10.769Z,14.30
2023-04-08T11:40:38.510Z,14.33
2023-04-08T11:43:15.496Z,14.38
2023-04-08T11:45:42.910Z,14.49
2023-04-08T11:48:14.206Z,14.65
2023-04-08T11:50:42.617Z,14.83
2023-04-08T11:53:25.181Z,14.98
2023-04-08T11:55:52.562Z,15.10
2023-04-08T11:58:19.661Z,15.22
2023-04-08T12:00:46.804Z,15.34
2023-04-08T12:03:14.238Z,15.50
2023-04-08T12:05:41.441Z,15.61
2023-04-08T12:08:08.501Z,15.60
2023-04-08T12:10:35.553Z,15.55
2023-04-08T12:13:02.698Z,15.45
2023-04-08T12:15:29.849Z,15.35
2023-04-08T12:17:57.020Z,15.26
2023-04-08T12:20:24.156Z,15.25
2023-04-08T12:22:51.464Z,15.28
2023-04-08T12:25:18.758Z,15.33
2023-04-08T12:27:45.810Z,15.42
2023-04-08T12:30:15.304Z,15.56
2023-04-08T12:32:46.110Z,15.69
2023-04-08T12:35:13.791Z,15.68
2023-04-08T12:37:41.198Z,15.60
2023-04-08T12:40:08.924Z,15.51
2023-04-08T12:42:36.000Z,15.49
2023-04-08T12:45:03.099Z,15.52
2023-04-08T12:47:30.464Z,15.47
2023-04-08T12:49:57.617Z,15.41
2023-04-08T12:52:24.805Z,15.39
2023-04-08T12:54:51.951Z,15.38
2023-04-08T12:57:19.104Z,15.31
2023-04-08T12:59:46.199Z,15.24
2023-04-08T13:02:13.677Z,15.22
2023-04-08T13:04:41.090Z,15.20
2023-04-08T13:07:08.255Z,15.13
2023-04-08T13:09:35.436Z,15.02
2023-04-08T13:12:02.696Z,14.92
2023-04-08T13:14:33.349Z,14.89
2023-04-08T13:17:00.414Z,14.96
2023-04-08T13:19:27.542Z,15.06
2023-04-08T13:21:54.614Z,15.17
2023-04-08T13:24:22.181Z,15.25
2023-04-08T13:26:49.660Z,15.28
2023-04-08T13:29:16.793Z,15.29
2023-04-08T13:31:46.113Z,15.32
2023-04-08T13:34:13.324Z,15.32
2023-04-08T13:36:40.615Z,15.34
2023-04-08T13:39:07.742Z,15.35
2023-04-08T13:41:35.143Z,15.38
2023-04-08T13:44:02.327Z,15.39
2023-04-08T13:46:29.721Z,15.39
2023-04-08T13:48:56.857Z,15.38
2023-04-08T13:51:29.734Z,15.38
2023-04-08T13:53:57.238Z,15.35
2023-04-08T13:56:24.324Z,15.34
2023-04-08T13:58:57.129Z,15.31
2023-04-08T14:01:25.050Z,15.28
2023-04-08T14:03:52.369Z,15.22
2023-04-08T14:06:19.474Z,15.14
2023-04-08T14:08:46.501Z,15.06
2023-04-08T14:11:13.523Z,15.01
2023-04-08T14:13:40.673Z,14.94
2023-04-08T14:16:07.717Z,14.90
2023-04-08T14:18:34.794Z,14.92
2023-04-08T14:21:02.758Z,14.94
2023-04-08T14:23:29.758Z,14.93
2023-04-08T14:25:56.818Z,14.90
2023-04-08T14:28:23.868Z,14.86
2023-04-08T14:30:51.235Z,14.84
2023-04-08T14:33:19.032Z,14.79
2023-04-08T14:35:46.128Z,14.72
2023-04-08T14:38:13.325Z,14.66
2023-04-08T14:40:40.719Z,14.62
2023-04-08T14:43:08.010Z,14.57
2023-04-08T14:45:35.082Z,14.51
2023-04-08T14:48:02.236Z,14.47
2023-04-08T14:50:30.680Z,14.44
2023-04-08T14:52:57.872Z,14.42
2023-04-08T14:55:25.977Z,14.40
2023-04-08T14:57:53.016Z,14.36
2023-04-08T15:00:20.205Z,14.32
2023-04-08T15:02:47.483Z,14.29
2023-04-08T15:05:14.646Z,14.27
2023-04-08T15:07:42.893Z,14.22
2023-04-08T15:10:10.485Z,14.14
2023-04-08T15:12:37.562Z,14.09
2023-04-08T15:15:05.150Z,14.05
2023-04-08T15:17:32.239Z,14.02
2023-04-08T15:19:59.543Z,13.99
2023-04-08T15:22:27.204Z,13.94
2023-04-08T15:24:54.268Z,13.91
2023-04-08T15:27:21.620Z,13.87
2023-04-08T15:29:48.720Z,13.83
2023-04-08T15:32:15.847Z,13.77
2023-04-08T15:34:43.011Z,13.75
2023-04-08T15:37:10.090Z,13.70
2023-04-08T15:39:37.195Z,13.66
2023-04-08T15:42:05.420Z,13.61
2023-04-08T15:44:32.822Z,13.55
2023-04-08T15:47:00.260Z,13.50
2023-04-08T15:49:27.831Z,13.45
2023-04-08T15:51:55.118Z,13.39
2023-04-08T15:54:22.256Z,13.35
2023-04-08T15:56:49.409Z,13.31
2023-04-08T15:59:16.574Z,13.26
2023-04-08T16:01:43.768Z,13.20
2023-04-08T16:04:11.269Z,13.16
2023-04-08T16:06:38.576Z,13.12
2023-04-08T16:09:06.587Z,13.08
2023-04-08T16:11:34.183Z,13.03
2023-04-08T16:14:01.957Z,12.98
2023-04-08T16:16:29.860Z,12.94
2023-04-08T16:18:57.015Z,12.90
2023-04-08T16:21:24.251Z,12.84
2023-04-08T16:23:51.895Z,12.79
2023-04-08T16:26:19.888Z,12.75
2023-04-08T16:28:47.135Z,12.70
2023-04-08T16:31:14.402Z,12.65
2023-04-08T16:33:41.775Z,12.61
2023-04-08T16:36:09.313Z,12.57
2023-04-08T16:38:36.747Z,12.53
2023-04-08T16:41:06.249Z,12.48
2023-04-08T16:43:33.403Z,12.43
2023-04-08T16:46:00.793Z,12.38
2023-04-08T16:48:27.922Z,12.33
2023-04-08T16:50:55.475Z,12.28
2023-04-08T16:53:22.502Z,12.23
2023-04-08T16:55:49.522Z,12.18
2023-04-08T16:58:16.732Z,12.12
2023-04-08T17:00:43.819Z,12.07
2023-04-08T17:03:11.029Z,12.02
2023-04-08T17:05:38.685Z,11.97
2023-04-08T17:08:06.110Z,11.91
2023-04-08T17:10:33.274Z,11.86
2023-04-08T17:13:00.510Z,11.81
2023-04-08T17:15:27.709Z,11.78
2023-04-08T17:17:54.807Z,11.75
2023-04-08T17:20:22.218Z,11.71
2023-04-08T17:22:49.309Z,11.66
2023-04-08T17:25:16.464Z,11.62
2023-04-08T17:27:43.602Z,11.58
2023-04-08T17:30:11.626Z,11.55
2023-04-08T17:32:38.971Z,11.49
2023-04-08T17:35:06.414Z,11.46
2023-04-08T17:37:33.645Z,11.42
2023-04-08T17:40:00.751Z,11.37
2023-04-08T17:42:27.847Z,11.34
2023-04-08T17:44:56.127Z,11.30
2023-04-08T17:47:23.332Z,11.25
2023-04-08T17:49:54.108Z,11.22
2023-04-08T17:52:21.202Z,11.17
2023-04-08T17:54:48.391Z,11.14
2023-04-08T17:57:16.058Z,11.13
2023-04-08T17:59:43.087Z,11.11
2023-04-08T18:02:10.495Z,11.10
2023-04-08T18:04:38.324Z,11.08
2023-04-08T18:07:05.645Z,11.05
2023-04-08T18:09:32.808Z,11.02
2023-04-08T18:12:00.132Z,10.98
2023-04-08T18:14:29.749Z,10.93
2023-04-08T18:16:56.853Z,10.89
2023-04-08T18:19:26.321Z,10.84
2023-04-08T18:21:53.499Z,10.80
2023-04-08T18:24:21.672Z,10.75
2023-04-08T18:27:01.500Z,10.70
2023-04-08T18:29:31.362Z,10.65
2023-04-08T18:31:58.501Z,10.59
2023-04-08T18:34:25.942Z,10.53
2023-04-08T18:36:53.225Z,10.47
2023-04-08T18:39:20.432Z,10.42
2023-04-08T18:41:47.482Z,10.38
2023-04-08T18:44:14.607Z,10.35
2023-04-08T18:46:42.029Z,10.32
2023-04-08T18:49:09.379Z,10.31
2023-04-08T18:51:36.507Z,10.30
2023-04-08T18:54:03.821Z,10.28
2023-04-08T18:56:31.688Z,10.26
2023-04-08T18:58:58.741Z,10.23
2023-04-08T19:01:25.968Z,10.21
2023-04-08T19:03:53.487Z,10.19
2023-04-08T19:06:22.748Z,10.17
2023-04-08T19:08:50.092Z,10.16
2023-04-08T19:11:17.171Z,10.14
2023-04-08T19:13:44.292Z,10.12
2023-04-08T19:16:11.443Z,10.11
2023-04-08T19:18:38.491Z,10.11
2023-04-08T19:21:05.735Z,10.11
2023-04-08T19:23:32.827Z,10.11
2023-04-08T19:25:59.883Z,10.11
2023-04-08T19:28:27.060Z,10.11
2023-04-08T19:30:54.150Z,10.11
2023-04-08T19:33:21.322Z,10.12
2023-04-08T19:35:49.420Z,10.13
2023-04-08T19:38:16.564Z,10.15
2023-04-08T19:40:43.695Z,10.17
2023-04-08T19:43:10.953Z,10.19
2023-04-08T19:45:37.941Z,10.20
2023-04-08T19:48:05.137Z,10.21
2023-04-08T19:50:32.227Z,10.19
2023-04-08T19:52:59.570Z,10.17
2023-04-08T19:55:26.764Z,10.15
2023-04-08T19:57:54.357Z,10.11
2023-04-08T20:00:22.140Z,10.07
2023-04-08T20:02:49.449Z,10.03
2023-04-08T20:05:17.495Z,9.99
2023-04-08T20:07:44.598Z,9.95
2023-04-08T20:10:12.538Z,9.91
2023-04-08T20:12:40.971Z,9.88
2023-04-08T20:15:23.011Z,9.82
2023-04-08T20:17:51.384Z,9.79
2023-04-08T20:20:18.703Z,9.77
2023-04-08T20:22:46.656Z,9.76
2023-04-08T20:25:13.772Z,9.75
2023-04-08T20:27:41.393Z,9.76
2023-04-08T20:30:09.475Z,9.78
2023-04-08T20:32:36.670Z,9.78
2023-04-08T20:35:04.967Z,9.77
2023-04-08T20:37:32.512Z,9.77
2023-04-08T20:39:59.673Z,9.76
2023-04-08T20:42:27.055Z,9.77
2023-04-08T20:44:54.123Z,9.77
2023-04-08T20:47:21.401Z,9.76
2023-04-08T20:49:48.539Z,9.74
2023-04-08T20:52:15.859Z,9.73
2023-04-08T20:54:42.961Z,9.72
2023-04-08T20:57:10.063Z,9.70
2023-04-08T20:59:37.128Z,9.69
2023-04-08T21:02:04.297Z,9.69
2023-04-08T21:04:31.935Z,9.70
2023-04-08T21:06:59.142Z,9.72
2023-04-08T21:09:26.262Z,9.74
2023-04-08T21:11:53.606Z,9.76
2023-04-08T21:14:20.745Z,9.78
2023-04-08T21:16:48.020Z,9.78
2023-04-08T21:19:15.780Z,9.77
2023-04-08T21:21:45.526Z,9.78
2023-04-08T21:24:13.015Z,9.79
2023-04-08T21:26:40.272Z,9.79
2023-04-08T21:29:07.345Z,9.78
2023-04-08T21:31:34.882Z,9.78
2023-04-08T21:34:02.020Z,9.77
2023-04-08T21:36:30.885Z,9.75
2023-04-08T21:38:57.957Z,9.74
2023-04-08T21:41:25.104Z,9.73
2023-04-08T21:43:52.245Z,9.72
2023-04-08T21:46:19.578Z,9.71
2023-04-08T21:48:47.563Z,9.70
2023-04-08T21:51:18.299Z,9.70
2023-04-08T21:53:45.696Z,9.70
2023-04-08T21:56:14.100Z,9.71
2023-04-08T21:58:41.219Z,9.73
2023-04-08T22:01:08.455Z,9.76
2023-04-08T22:03:35.704Z,9.78
2023-04-08T22:06:02.870Z,9.80
2023-04-08T22:08:32.478Z,9.82
2023-04-08T22:10:59.611Z,9.83
2023-04-08T22:13:27.393Z,9.85
2023-04-08T22:15:54.475Z,9.87
2023-04-08T22:18:21.591Z,9.88
2023-04-08T22:20:48.696Z,9.88
2023-04-08T22:23:15.833Z,9.88
2023-04-08T22:25:42.893Z,9.89
2023-04-08T22:28:09.985Z,9.89
2023-04-08T22:30:37.064Z,9.87
2023-04-08T22:33:04.279Z,9.86
2023-04-08T22:35:31.661Z,9.87
2023-04-08T22:37:58.810Z,9.87
2023-04-08T22:40:25.930Z,9.88
2023-04-08T22:42:53.009Z,9.89
2023-04-08T22:45:20.127Z,9.90
2023-04-08T22:47:47.341Z,9.89
2023-04-08T22:50:14.456Z,9.87
2023-04-08T22:52:42.053Z,9.84
2023-04-08T22:55:09.377Z,9.82
2023-04-08T22:57:36.704Z,9.80
2023-04-08T23:00:05.201Z,9.79
2023-04-08T23:02:32.364Z,9.76
2023-04-08T23:04:59.520Z,9.74
2023-04-08T23:07:26.591Z,9.70
2023-04-08T23:09:53.632Z,9.66
2023-04-08T23:12:20.776Z,9.63
2023-04-08T23:14:47.842Z,9.61
2023-04-08T23:17:14.827Z,9.59
2023-04-08T23:19:42.528Z,9.59
2023-04-08T23:22:09.587Z,9.59
2023-04-08T23:24:36.715Z,9.58
2023-04-08T23:27:04.006Z,9.58
2023-04-08T23:29:31.721Z,9.58
2023-04-08T23:31:58.801Z,9.59
2023-04-08T23:34:25.919Z,9.58
2023-04-08T23:36:53.123Z,9.57
2023-04-08T23:39:20.441Z,9.55
2023-04-08T23:41:47.581Z,9.55
2023-04-08T23:44:14.620Z,9.53
2023-04-08T23:46:41.695Z,9.50
2023-04-08T23:49:08.840Z,9.50
2023-04-08T23:51:38.902Z,9.50
2023-04-08T23:54:05.992Z,9.51
2023-04-08T23:56:33.054Z,9.53
2023-04-08T23:59:00.141Z,9.55
